createdAt,value
2022-10-22T00:01:49.166Z,68.90
2022-10-22T00:04:51.618Z,68.90
2022-10-22T00:07:53.699Z,68.85
2022-10-22T00:10:55.941Z,68.86
2022-10-22T00:13:58.699Z,68.84
2022-10-22T00:17:01.094Z,68.84
2022-10-22T00:20:04.032Z,68.86
2022-10-22T00:23:06.137Z,68.82
2022-10-22T00:26:08.695Z,68.81
2022-10-22T00:29:10.855Z,68.81
2022-10-22T00:32:13.055Z,68.79
2022-10-22T00:35:15.224Z,68.77
2022-10-22T00:38:17.683Z,68.75
2022-10-22T00:41:19.888Z,68.78
2022-10-22T00:44:59.782Z,68.78
2022-10-22T00:48:05.972Z,68.74
2022-10-22T00:51:09.307Z,68.76
2022-10-22T00:54:11.601Z,68.75
2022-10-22T00:57:13.966Z,68.71
2022-10-22T01:00:16.560Z,68.76
2022-10-22T01:03:18.626Z,68.75
2022-10-22T01:06:26.811Z,68.75
2022-10-22T01:09:49.829Z,68.76
2022-10-22T01:13:23.199Z,68.75
2022-10-22T01:16:48.001Z,68.79
2022-10-22T01:20:11.893Z,68.78
2022-10-22T01:23:13.974Z,68.80
2022-10-22T01:26:31.199Z,68.81
2022-10-22T01:29:51.818Z,68.78
2022-10-22T01:32:59.537Z,68.79
2022-10-22T01:36:02.921Z,68.80
2022-10-22T01:39:07.262Z,68.79
2022-10-22T01:42:11.629Z,68.81
2022-10-22T01:45:14.549Z,68.82
2022-10-22T01:48:42.666Z,68.81
2022-10-22T01:52:05.562Z,68.81
2022-10-22T01:55:19.763Z,68.78
2022-10-22T01:58:24.643Z,68.81
2022-10-22T02:01:48.489Z,68.82
2022-10-22T02:05:00.971Z,68.81
2022-10-22T02:08:10.509Z,68.82
2022-10-22T02:11:14.162Z,68.83
2022-10-22T02:14:18.450Z,68.81
2022-10-22T02:17:22.403Z,68.84
2022-10-22T02:20:29.676Z,68.86
2022-10-22T02:23:31.937Z,68.82
2022-10-22T02:26:47.282Z,68.84
2022-10-22T02:30:02.812Z,68.91
2022-10-22T02:33:14.618Z,68.86
2022-10-22T02:36:18.251Z,68.91
2022-10-22T02:39:21.576Z,68.92
2022-10-22T02:42:25.868Z,68.87
2022-10-22T02:45:28.271Z,68.90
2022-10-22T02:48:30.372Z,68.91
2022-10-22T02:51:32.652Z,68.89
2022-10-22T02:54:34.876Z,68.91
2022-10-22T02:57:37.222Z,68.85
2022-10-22T03:00:39.995Z,68.87
2022-10-22T03:03:42.101Z,68.85
2022-10-22T03:06:44.719Z,68.90
2022-10-22T03:09:47.021Z,68.89
2022-10-22T03:12:49.156Z,68.87
2022-10-22T03:15:51.370Z,68.86
2022-10-22T03:18:53.466Z,68.85
2022-10-22T03:22:06.013Z,68.84
2022-10-22T03:25:12.095Z,68.87
2022-10-22T03:28:16.865Z,68.87
2022-10-22T03:31:18.976Z,68.87
2022-10-22T03:34:22.758Z,68.88
2022-10-22T03:37:26.243Z,68.85
2022-10-22T03:40:28.373Z,68.86
2022-10-22T03:43:30.722Z,68.87
2022-10-22T03:46:33.045Z,68.83
2022-10-22T03:49:35.352Z,68.86
2022-10-22T03:52:39.080Z,68.84
2022-10-22T03:55:41.669Z,68.85
2022-10-22T03:58:43.779Z,68.81
2022-10-22T04:01:46.045Z,68.83
2022-10-22T04:04:48.163Z,68.81
2022-10-22T04:07:50.326Z,68.85
2022-10-22T04:10:52.613Z,68.84
2022-10-22T04:13:54.859Z,68.82
2022-10-22T04:16:56.936Z,68.82
2022-10-22T04:19:59.060Z,68.85
2022-10-22T04:23:01.140Z,68.87
2022-10-22T04:26:06.360Z,68.84
2022-10-22T04:29:11.969Z,68.90
2022-10-22T04:32:17.341Z,68.85
2022-10-22T04:35:19.527Z,68.86
2022-10-22T04:38:21.553Z,68.84
2022-10-22T04:41:26.613Z,68.86
2022-10-22T04:44:28.710Z,68.87
2022-10-22T04:47:31.031Z,68.87
2022-10-22T04:50:33.176Z,68.84
2022-10-22T04:53:36.230Z,68.87
2022-10-22T04:56:38.452Z,68.88
2022-10-22T04:59:40.646Z,68.88
2022-10-22T05:02:44.692Z,68.93
2022-10-22T05:05:46.786Z,68.91
2022-10-22T05:08:53.094Z,68.91
2022-10-22T05:11:55.664Z,68.93
2022-10-22T05:14:57.744Z,68.94
2022-10-22T05:17:59.858Z,68.94
2022-10-22T05:21:02.328Z,68.91
2022-10-22T05:24:04.813Z,68.94
2022-10-22T05:27:07.018Z,68.94
2022-10-22T05:30:09.360Z,68.91
2022-10-22T05:33:11.430Z,68.92
2022-10-22T05:36:16.604Z,68.87
2022-10-22T05:39:18.706Z,68.58
2022-10-22T05:42:20.825Z,68.29
2022-10-22T05:45:22.886Z,67.84
2022-10-22T05:48:25.083Z,67.53
2022-10-22T05:51:28.920Z,67.36
2022-10-22T05:54:31.001Z,67.27
2022-10-22T05:57:33.104Z,67.12
2022-10-22T06:00:35.288Z,67.02
2022-10-22T06:03:37.528Z,66.90
2022-10-22T06:06:45.388Z,66.86
2022-10-22T06:09:50.129Z,66.85
2022-10-22T06:12:52.268Z,66.88
2022-10-22T06:15:54.315Z,66.88
2022-10-22T06:18:56.344Z,66.81
2022-10-22T06:21:58.449Z,66.86
2022-10-22T06:25:00.496Z,66.86
2022-10-22T06:28:02.670Z,66.87
2022-10-22T06:31:05.139Z,66.81
2022-10-22T06:34:10.822Z,66.88
2022-10-22T06:37:15.239Z,66.87
2022-10-22T06:40:18.713Z,66.91
2022-10-22T06:43:20.995Z,66.90
2022-10-22T06:46:24.302Z,66.89
2022-10-22T06:49:26.414Z,66.92
2022-10-22T06:52:28.536Z,66.94
2022-10-22T06:55:30.686Z,66.98
2022-10-22T06:58:32.935Z,66.94
2022-10-22T07:01:36.151Z,66.94
2022-10-22T07:04:38.338Z,66.99
2022-10-22T07:07:40.417Z,66.98
2022-10-22T07:10:42.468Z,66.98
2022-10-22T07:13:45.418Z,67.00
2022-10-22T07:16:47.560Z,67.01
2022-10-22T07:19:51.285Z,67.05
2022-10-22T07:22:54.120Z,67.11
2022-10-22T07:29:04.182Z,67.12
2022-10-22T07:32:06.471Z,67.14
2022-10-22T07:35:08.770Z,67.10
2022-10-22T07:38:11.093Z,67.07
2022-10-22T07:41:14.347Z,67.08
2022-10-22T07:44:16.419Z,67.13
2022-10-22T07:47:18.491Z,67.13
2022-10-22T07:50:20.700Z,67.10
2022-10-22T07:53:23.108Z,66.98
2022-10-22T07:56:25.215Z,66.88
2022-10-22T07:59:27.339Z,66.86
2022-10-22T08:02:29.575Z,66.77
2022-10-22T08:05:31.641Z,66.77
2022-10-22T08:08:34.650Z,66.85
2022-10-22T08:11:36.835Z,66.95
2022-10-22T08:14:38.892Z,67.05
2022-10-22T08:17:41.244Z,67.20
2022-10-22T08:20:43.485Z,67.27
2022-10-22T08:23:45.668Z,67.27
2022-10-22T08:26:47.810Z,67.32
2022-10-22T08:29:50.742Z,67.40
2022-10-22T08:32:54.078Z,67.37
2022-10-22T08:35:56.367Z,67.54
2022-10-22T08:38:58.415Z,67.60
2022-10-22T08:42:22.378Z,67.64
2022-10-22T08:45:55.854Z,67.64
2022-10-22T08:49:01.746Z,67.65
2022-10-22T08:52:04.826Z,67.63
2022-10-22T08:55:12.801Z,67.77
2022-10-22T08:58:42.272Z,67.84
2022-10-22T09:01:48.996Z,67.89
2022-10-22T09:05:15.214Z,67.84
2022-10-22T09:08:19.352Z,67.78
2022-10-22T09:11:35.684Z,67.78
2022-10-22T09:14:37.768Z,67.67
2022-10-22T09:17:59.524Z,67.62
2022-10-22T09:21:23.361Z,67.59
2022-10-22T09:24:39.190Z,66.98
2022-10-22T09:27:41.443Z,67.01
2022-10-22T09:30:43.961Z,67.19
2022-10-22T09:33:50.221Z,67.09
2022-10-22T09:37:01.155Z,67.30
2022-10-22T09:40:05.806Z,67.60
2022-10-22T09:43:12.356Z,67.45
2022-10-22T09:46:20.554Z,67.28
2022-10-22T09:49:24.192Z,67.50
2022-10-22T09:52:30.323Z,67.75
2022-10-22T09:55:33.038Z,67.89
2022-10-22T09:58:46.291Z,67.99
2022-10-22T10:02:08.349Z,68.23
2022-10-22T10:05:25.777Z,68.68
2022-10-22T10:08:27.978Z,68.52
2022-10-22T10:11:37.267Z,68.46
2022-10-22T10:14:57.727Z,68.93
2022-10-22T10:18:05.554Z,69.10
2022-10-22T10:21:29.173Z,69.16
2022-10-22T10:24:53.049Z,69.23
2022-10-22T10:28:25.431Z,69.46
2022-10-22T10:31:42.214Z,69.18
2022-10-22T10:35:12.329Z,68.87
2022-10-22T10:38:40.622Z,68.55
2022-10-22T10:41:51.827Z,68.42
2022-10-22T10:45:08.173Z,68.53
2022-10-22T10:48:38.586Z,68.66
2022-10-22T10:52:21.546Z,68.75
2022-10-22T10:55:40.949Z,68.94
2022-10-22T10:59:09.972Z,69.08
2022-10-22T11:02:33.248Z,69.16
2022-10-22T11:05:58.885Z,69.25
2022-10-22T11:09:27.812Z,69.36
2022-10-22T11:12:39.062Z,69.39
2022-10-22T11:15:44.795Z,69.39
2022-10-22T11:19:15.500Z,69.42
2022-10-22T11:22:38.010Z,69.42
2022-10-22T11:25:46.178Z,69.44
2022-10-22T11:28:53.525Z,69.39
2022-10-22T11:31:56.675Z,69.35
2022-10-22T11:35:02.750Z,69.32
2022-10-22T11:38:07.567Z,69.32
2022-10-22T11:41:15.921Z,69.33
2022-10-22T11:44:25.941Z,69.30
2022-10-22T11:47:34.341Z,69.36
2022-10-22T11:50:50.867Z,69.35
2022-10-22T11:53:57.866Z,69.51
2022-10-22T11:57:15.287Z,69.36
2022-10-22T12:00:35.666Z,69.39
2022-10-22T12:04:10.788Z,69.47
2022-10-22T12:07:33.533Z,69.20
2022-10-22T12:10:57.273Z,69.38
2022-10-22T12:14:16.044Z,69.46
2022-10-22T12:17:19.541Z,69.39
2022-10-22T12:20:25.961Z,69.16
2022-10-22T12:23:35.233Z,69.22
2022-10-22T12:26:37.910Z,69.39
2022-10-22T12:29:39.948Z,69.22
2022-10-22T12:32:42.100Z,69.16
2022-10-22T12:35:46.493Z,69.29
2022-10-22T12:38:48.649Z,69.07
2022-10-22T12:41:53.428Z,68.94
2022-10-22T12:44:56.617Z,68.98
2022-10-22T12:48:04.283Z,69.19
2022-10-22T12:51:08.143Z,69.12
2022-10-22T12:54:25.796Z,68.98
2022-10-22T12:57:27.930Z,68.78
2022-10-22T13:00:35.104Z,69.00
2022-10-22T13:03:51.731Z,69.03
2022-10-22T13:07:18.327Z,68.86
2022-10-22T13:10:34.999Z,68.53
2022-10-22T13:13:37.072Z,68.26
2022-10-22T13:16:40.413Z,68.17
2022-10-22T13:19:53.895Z,68.08
2022-10-22T13:23:02.593Z,68.30
2022-10-22T13:26:13.412Z,68.40
2022-10-22T13:29:19.332Z,68.51
2022-10-22T13:32:33.386Z,68.55
2022-10-22T13:35:38.222Z,68.27
2022-10-22T13:38:40.871Z,68.00
2022-10-22T13:41:43.093Z,67.80
2022-10-22T13:44:45.209Z,68.03
2022-10-22T13:47:54.342Z,67.77
2022-10-22T13:50:56.513Z,67.49
2022-10-22T13:53:58.767Z,67.30
2022-10-22T13:57:00.933Z,67.18
2022-10-22T14:00:03.556Z,67.01
2022-10-22T14:03:06.538Z,66.89
2022-10-22T14:06:16.349Z,66.77
2022-10-22T14:09:18.851Z,66.66
2022-10-22T14:12:21.421Z,66.53
2022-10-22T14:15:25.496Z,66.67
2022-10-22T14:18:31.575Z,66.44
2022-10-22T14:21:37.735Z,66.30
2022-10-22T14:24:39.793Z,66.12
2022-10-22T14:27:45.236Z,66.02
2022-10-22T14:30:48.149Z,65.91
2022-10-22T14:33:50.402Z,65.89
2022-10-22T14:36:52.508Z,66.06
2022-10-22T14:40:01.186Z,65.95
2022-10-22T14:43:03.262Z,65.90
2022-10-22T14:46:05.404Z,65.95
2022-10-22T14:49:07.638Z,66.05
2022-10-22T14:52:11.773Z,66.20
2022-10-22T14:55:18.259Z,66.43
2022-10-22T14:58:20.588Z,66.50
2022-10-22T15:01:22.787Z,66.54
2022-10-22T15:04:26.999Z,66.64
2022-10-22T15:07:29.277Z,66.68
2022-10-22T15:10:31.387Z,66.65
2022-10-22T15:13:34.800Z,66.68
2022-10-22T15:16:36.913Z,66.61
2022-10-22T15:19:38.974Z,66.62
2022-10-22T15:22:41.265Z,66.57
2022-10-22T15:25:44.524Z,66.61
2022-10-22T15:28:46.615Z,66.59
2022-10-22T15:31:54.521Z,66.59
2022-10-22T15:34:56.712Z,66.69
2022-10-22T15:38:01.327Z,66.70
2022-10-22T15:41:05.987Z,66.72
2022-10-22T15:44:08.918Z,66.66
2022-10-22T15:47:11.094Z,66.67
2022-10-22T15:50:13.294Z,66.64
2022-10-22T15:53:15.378Z,66.70
2022-10-22T15:56:17.543Z,66.68
2022-10-22T15:59:19.645Z,66.66
2022-10-22T16:02:21.713Z,66.71
2022-10-22T16:05:23.816Z,66.70
2022-10-22T16:08:26.494Z,66.74
2022-10-22T16:11:29.398Z,66.72
2022-10-22T16:14:31.621Z,66.72
2022-10-22T16:17:33.713Z,66.72
2022-10-22T16:20:40.197Z,66.70
2022-10-22T16:23:42.877Z,66.72
2022-10-22T16:26:45.142Z,66.75
2022-10-22T16:29:47.386Z,66.81
2022-10-22T16:32:49.566Z,66.83
2022-10-22T16:35:51.664Z,66.86
2022-10-22T16:38:53.842Z,66.86
2022-10-22T16:41:56.022Z,66.93
2022-10-22T16:44:58.123Z,66.94
2022-10-22T16:48:00.178Z,66.97
2022-10-22T16:51:07.348Z,67.01
2022-10-22T16:54:12.619Z,67.02
2022-10-22T16:57:14.846Z,67.01
2022-10-22T17:00:17.212Z,67.04
2022-10-22T17:03:19.285Z,67.04
2022-10-22T17:06:22.370Z,67.08
2022-10-22T17:09:25.361Z,67.13
2022-10-22T17:12:27.460Z,67.12
2022-10-22T17:15:29.693Z,67.15
2022-10-22T17:18:32.364Z,67.17
2022-10-22T17:21:34.463Z,67.20
2022-10-22T17:24:36.540Z,67.20
2022-10-22T17:27:38.832Z,67.21
2022-10-22T17:30:41.300Z,67.20
2022-10-22T17:33:43.832Z,67.20
2022-10-22T17:36:46.031Z,67.20
2022-10-22T17:39:48.131Z,67.20
2022-10-22T17:42:50.201Z,67.20
2022-10-22T17:45:52.316Z,67.22
2022-10-22T17:48:56.975Z,67.22
2022-10-22T17:55:06.415Z,67.21
2022-10-22T17:58:08.465Z,67.20
2022-10-22T18:01:25.043Z,67.23
2022-10-22T18:04:27.840Z,67.21
2022-10-22T18:07:29.928Z,67.24
2022-10-22T18:10:32.064Z,67.29
2022-10-22T18:13:34.502Z,67.31
2022-10-22T18:16:36.720Z,67.33
2022-10-22T18:19:38.789Z,67.36
2022-10-22T18:22:42.167Z,67.35
2022-10-22T18:25:44.460Z,67.36
2022-10-22T18:28:48.665Z,67.38
2022-10-22T18:31:50.819Z,67.37
2022-10-22T18:34:53.050Z,67.39
2022-10-22T18:37:55.091Z,67.37
2022-10-22T18:40:57.138Z,67.35
2022-10-22T18:44:01.801Z,67.36
2022-10-22T18:47:04.013Z,67.36
2022-10-22T18:50:06.596Z,67.33
2022-10-22T18:53:09.088Z,67.31
2022-10-22T18:56:12.438Z,67.31
2022-10-22T18:59:21.267Z,67.27
2022-10-22T19:02:23.348Z,67.30
2022-10-22T19:05:25.524Z,67.27
2022-10-22T19:08:27.633Z,67.27
2022-10-22T19:11:29.726Z,67.25
2022-10-22T19:14:32.266Z,67.20
2022-10-22T19:17:34.853Z,67.23
2022-10-22T19:20:37.556Z,67.20
2022-10-22T19:23:39.690Z,67.20
2022-10-22T19:26:42.213Z,67.23
2022-10-22T19:29:45.517Z,67.21
2022-10-22T19:32:48.864Z,67.16
2022-10-22T19:35:51.013Z,67.17
2022-10-22T19:38:53.121Z,67.17
2022-10-22T19:41:55.224Z,67.17
2022-10-22T19:44:57.639Z,67.19
2022-10-22T19:47:59.737Z,67.19
2022-10-22T19:51:04.711Z,67.18
2022-10-22T19:54:10.991Z,67.19
2022-10-22T19:57:18.358Z,67.18
2022-10-22T20:00:20.710Z,67.19
2022-10-22T20:03:23.122Z,67.20
2022-10-22T20:06:25.399Z,67.20
2022-10-22T20:09:27.640Z,67.20
2022-10-22T20:12:29.716Z,67.19
2022-10-22T20:15:32.927Z,67.22
2022-10-22T20:18:36.297Z,67.20
2022-10-22T20:21:39.438Z,67.23
2022-10-22T20:24:41.536Z,67.22
2022-10-22T20:27:43.711Z,67.27
2022-10-22T20:30:46.368Z,67.24
2022-10-22T20:33:50.536Z,67.24
2022-10-22T20:36:52.790Z,67.25
2022-10-22T20:39:54.886Z,67.22
2022-10-22T20:42:57.040Z,67.21
2022-10-22T20:45:59.409Z,67.23
2022-10-22T20:49:07.601Z,67.26
2022-10-22T20:52:09.788Z,67.23
2022-10-22T20:55:13.065Z,67.27
2022-10-22T20:58:15.351Z,67.23
2022-10-22T21:01:27.935Z,67.23
2022-10-22T21:04:30.396Z,67.24
2022-10-22T21:07:32.575Z,67.23
2022-10-22T21:10:35.394Z,67.25
2022-10-22T21:13:37.657Z,67.22
2022-10-22T21:16:50.818Z,67.26
2022-10-22T21:19:52.830Z,67.25
2022-10-22T21:22:54.966Z,67.25
2022-10-22T21:25:58.301Z,67.22
2022-10-22T21:29:00.352Z,67.26
2022-10-22T21:32:02.400Z,67.20
2022-10-22T21:35:04.949Z,67.18
2022-10-22T21:38:07.917Z,67.21
2022-10-22T21:41:12.198Z,67.20
2022-10-22T21:44:14.334Z,67.19
2022-10-22T21:47:16.372Z,67.18
2022-10-22T21:50:18.572Z,67.17
2022-10-22T21:53:20.668Z,67.17
2022-10-22T21:56:28.667Z,67.17
2022-10-22T21:59:32.246Z,67.14
2022-10-22T22:02:34.501Z,67.14
2022-10-22T22:05:37.008Z,67.12
2022-10-22T22:08:39.718Z,67.11
2022-10-22T22:11:41.829Z,67.12
2022-10-22T22:14:43.993Z,67.07
2022-10-22T22:17:46.965Z,67.10
2022-10-22T22:20:49.109Z,67.07
2022-10-22T22:23:51.587Z,67.10
2022-10-22T22:26:53.639Z,67.06
2022-10-22T22:29:55.675Z,67.07
2022-10-22T22:32:57.777Z,67.08
2022-10-22T22:35:59.962Z,67.09
2022-10-22T22:39:02.560Z,67.07
2022-10-22T22:42:04.679Z,67.06
2022-10-22T22:45:07.134Z,67.08
2022-10-22T22:48:09.240Z,67.06
2022-10-22T22:51:11.449Z,67.09
2022-10-22T22:54:13.481Z,67.06
2022-10-22T22:57:15.827Z,67.07
2022-10-22T23:00:18.075Z,67.09
2022-10-22T23:03:20.173Z,67.07
2022-10-22T23:06:23.618Z,67.06
2022-10-22T23:09:25.690Z,67.04
2022-10-22T23:12:28.861Z,67.05
2022-10-22T23:15:30.924Z,67.04
2022-10-22T23:18:33.067Z,67.04
2022-10-22T23:21:39.025Z,67.06
2022-10-22T23:24:41.524Z,67.02
2022-10-22T23:27:43.939Z,67.04
2022-10-22T23:30:46.363Z,67.01
2022-10-22T23:33:49.324Z,67.04
2022-10-22T23:36:52.511Z,67.02
2022-10-22T23:39:54.619Z,67.03
2022-10-22T23:42:56.673Z,67.01
2022-10-22T23:45:58.819Z,67.01
2022-10-22T23:49:01.737Z,66.99
2022-10-22T23:52:03.906Z,66.98
2022-10-22T23:55:06.631Z,66.98
2022-10-22T23:58:09.286Z,66.95
